AirNav   ProFlight Series 2 Aviation Headset
 
 1120 users online  

HL2 Hubbard Landing Seaplane Base
Stockton, Alabama, USA

GOING TO STOCKTON?


FAA INFORMATION EFFECTIVE 16 JULY 2020

Location

FAA Identifier: HL2
Lat/Long: 31-03-49.0000N 087-52-12.0000W
31-03.816667N 087-52.200000W
31.0636111,-87.8700000
(estimated)
Elevation: 8 ft. / 2 m (estimated)
From city: 5 miles SE of STOCKTON, AL
Time zone: UTC -5 (UTC -6 during Standard Time)
Zip code: 36579

Seaplane Base Operations

Seaplane Base use: Open to the public
Activation date: 01/2007
Control tower: no
ARTCC: HOUSTON CENTER
FSS: ANNISTON FLIGHT SERVICE STATION
NOTAMs facility: ANB (NOTAM-D service available)
Attendance: SR-SS
Segmented circle: no

Seaplane Base Communications

CTAF: 122.9

Nearby radio navigation aids

VOR radial/distance  VOR name  Freq  Var
BFMr015/28.7BROOKLEY VORTAC112.8004E
GCVr089/31.7GREENE COUNTY VORTAC115.7005E
SJIr046/32.3SEMMES VORTAC115.3005E
MVCr224/35.6MONROEVILLE VORTAC116.8004E

 
NDB name  Hdg/Dist  Freq  Var  ID
WISLE052/28.824801WMOB -- --- -...

Seaplane Base Services

Runway Information

Runway 16W/34W

Dimensions: 6000 x 300 ft. / 1829 x 91 m
Surface: water
RUNWAY 16W  RUNWAY 34W
Traffic pattern: leftleft

Seaplane Base Ownership and Management from official FAA records

Ownership: Privately-owned
Owner: PAUL L BRYARS, JR
9100 HUBBARDS LANDING ROAD
STOCKTON, AL 36579
Phone 251-937-5726
Manager: PAUL L. BRYARS JR.
9100 HUBBARD LANDING ROAD
STOCKTON, AL 36579
Phone 251-937-5726

Additional Remarks

TOUR BUOYS IN FRONT OF RAMP AREA.
FOR CD CTC MOBILE APCH AT 251-662-6236, WHEN APCH CLSD CTC HOUSTON ARTCC AT 281-230-5622.

Instrument Procedures

There are no published instrument procedures at HL2.

Some nearby airports with instrument procedures:

1R8 - Bay Minette Municipal Airport (12 nm S)
0R1 - Atmore Municipal Airport (22 nm E)
4R3 - Jackson Municipal Airport (24 nm N)
KBFM - Mobile Downtown Airport (28 nm S)
5R1 - Roy Wilcox Airport (29 nm NW)
 
Loc | Ops | Rwys | IFR | FBO | Links
Com | Nav | Svcs | Stats | Notes

Continental Services
AirBoss

 
Area around HL2 (Hubbard Landing Seaplane Base)
 
Road maps at: MapQuest Bing Google
 
Aerial photo
No photo
 
Sectional chart

 
Airport distance calculator
Flying to Hubbard Landing Seaplane Base? Find the distance to fly.

From to HL2

Sunrise and sunset
Times for 10-Aug-2020
 Local
(UTC-5)
 Zulu
(UTC)
Morning civil twilight05:5010:50
Sunrise06:1611:16
Sunset19:3700:37
Evening civil twilight20:0301:03

Current date and time
Zulu (UTC)  10-Aug-2020 23:32:40
Local (UTC-5)  10-Aug-2020 18:32:40
 
METAR
KBFM 
29nm S 
102253Z 20004KT 10SM FEW035 32/25 A3000 RMK AO2 SLP157 T03170250
KMOB 
30nm SW 
102256Z 20008KT 10SM FEW050 FEW110 BKN250 31/24 A3000 RMK AO2 SLP154 T03110244
KCQF 
36nm S 
102315Z AUTO 00000KT 10SM CLR 28/24 A3001 RMK AO2
KGZH 
47nm NE 
102253Z AUTO 00000KT 10SM CLR 31/23 A2999 RMK AO2 SLP151 T03060233
KJKA 
48nm S 
102315Z AUTO 24009KT 10SM CLR 31/25 A3001 RMK AO2 LTG DSNT NE T03080246
KNSE 
49nm SE 
102256Z 20008KT 10SM SCT045 SCT120 BKN250 29/24 A3000 RMK AO2 SLP143 FRQ LTGICCG DSNT NW CB DSNT NW T2 SET T02940239 $
KNDZ 
49nm SE 
102156Z 20006KT 10SM SCT038 SCT120 BKN250 32/25 A3000 RMK AO2 SLP144 T1 SET T03170250 $
KPQL 
50nm SW 
102153Z 23007KT 170V270 10SM CLR 34/25 A3001 RMK AO2 SLP163 T03390250
KPNS 
50nm SE 
102253Z 21010KT 10SM CLR 31/25 A3000 RMK AO2 LTG DSNT N AND NW SLP158 T03060250
TAF
KBFM 
29nm S 
102055Z 1021/1118 15011KT P6SM VCTS SCT040CB FM110000 24005KT P6SM SCT080 FM110300 VRB03KT P6SM FEW150
KMOB 
30nm SW 
102055Z 1021/1118 10006KT P6SM VCTS SCT050CB FM110000 23004KT P6SM SCT070 FM110300 00000KT P6SM FEW150
NOTAMs
Click for the latest NOTAMs
NOTAMs are issued by the DoD/FAA and will open in a separate window not controlled by AirNav.

 

 
 

Would you like to see your business listed on this page?

 If your business provides an interesting product or service to pilots, flight crews, aircraft, or users of the Hubbard Landing Seaplane Base, you should consider listing it here.  To start the listing process, click on the button below
 
Add a business
 

Other Pages about Hubbard Landing Seaplane Base

Update a link
 
Copyright © AirNav, LLC. All rights reserved. Privacy Policy  Contact